createdAt,value
2022-08-05T00:00:18.627Z,68.44
2022-08-05T00:02:51.577Z,68.31
2022-08-05T00:06:02.816Z,68.69
2022-08-05T00:08:34.554Z,68.87
2022-08-05T00:11:00.533Z,69.07
2022-08-05T00:13:39.258Z,69.11
2022-08-05T00:16:12.164Z,69.11
2022-08-05T00:18:49.861Z,69.21
2022-08-05T00:21:19.032Z,69.28
2022-08-05T00:24:05.216Z,69.63
2022-08-05T00:26:35.961Z,69.51
2022-08-05T00:29:03.679Z,69.95
2022-08-05T00:31:54.148Z,69.56
2022-08-05T00:34:56.864Z,70.19
2022-08-05T00:37:14.226Z,70.11
2022-08-05T00:39:58.114Z,70.14
2022-08-05T00:42:34.893Z,70.29
2022-08-05T00:45:04.559Z,70.41
2022-08-05T00:47:56.410Z,70.50
2022-08-05T00:50:20.901Z,70.93
2022-08-05T00:52:48.999Z,71.06
2022-08-05T00:55:16.626Z,70.96
2022-08-05T00:57:57.933Z,71.19
2022-08-05T01:00:31.460Z,70.97
2022-08-05T01:03:00.025Z,71.15
2022-08-05T01:05:28.036Z,71.70
2022-08-05T01:08:40.997Z,71.35
2022-08-05T01:10:51.554Z,71.67
2022-08-05T01:13:58.316Z,71.87
2022-08-05T01:16:33.868Z,72.02
2022-08-05T01:19:14.389Z,72.12
2022-08-05T01:21:55.278Z,72.37
2022-08-05T01:24:47.660Z,72.01
2022-08-05T01:27:55.419Z,72.33
2022-08-05T01:30:34.112Z,72.40
2022-08-05T01:33:09.591Z,72.29
2022-08-05T01:35:51.085Z,72.75
2022-08-05T01:38:26.896Z,72.79
2022-08-05T01:41:01.457Z,73.07
2022-08-05T01:43:30.801Z,73.20
2022-08-05T01:46:07.394Z,73.40
2022-08-05T01:48:50.738Z,73.56
2022-08-05T01:51:19.625Z,73.49
2022-08-05T01:53:58.004Z,73.55
2022-08-05T01:58:13.785Z,73.41
2022-08-05T01:59:22.942Z,73.62
2022-08-05T02:01:54.820Z,73.46
2022-08-05T02:04:26.661Z,73.44
2022-08-05T02:06:54.742Z,73.87
2022-08-05T02:09:23.076Z,73.97
2022-08-05T02:11:59.825Z,73.47
2022-08-05T02:14:40.194Z,73.60
2022-08-05T02:18:27.457Z,73.44
2022-08-05T02:20:20.478Z,73.32
2022-08-05T02:22:56.691Z,73.20
2022-08-05T02:25:34.186Z,73.12
2022-08-05T02:28:28.961Z,72.86
2022-08-05T02:31:08.238Z,72.78
2022-08-05T02:33:50.189Z,72.72
2022-08-05T02:36:27.436Z,73.25
2022-08-05T02:38:57.564Z,72.92
2022-08-05T02:41:28.387Z,73.12
2022-08-05T02:44:06.460Z,73.01
2022-08-05T02:46:58.323Z,73.00
2022-08-05T02:49:42.075Z,72.74
2022-08-05T02:52:30.013Z,73.09
2022-08-05T02:55:01.865Z,72.85
2022-08-05T02:58:10.176Z,73.08
2022-08-05T03:00:22.048Z,73.27
2022-08-05T03:02:53.846Z,73.27
2022-08-05T03:06:56.393Z,73.68
2022-08-05T03:08:11.510Z,73.63
2022-08-05T03:10:43.048Z,73.98
2022-08-05T03:13:51.940Z,74.14
2022-08-05T03:16:18.685Z,74.69
2022-08-05T03:18:47.652Z,74.08
2022-08-05T03:21:16.477Z,74.54
2022-08-05T03:23:45.748Z,74.45
2022-08-05T03:26:31.500Z,74.42
2022-08-05T03:29:00.724Z,74.37
2022-08-05T03:31:56.520Z,74.31
2022-08-05T03:34:17.612Z,74.33
2022-08-05T03:36:45.807Z,75.27
2022-08-05T03:39:20.201Z,75.21
2022-08-05T03:41:58.478Z,75.23
2022-08-05T03:44:29.002Z,74.82
2022-08-05T03:46:56.771Z,75.37
2022-08-05T03:49:31.163Z,75.30
2022-08-05T03:52:38.087Z,74.91
2022-08-05T03:56:04.042Z,75.09
2022-08-05T03:58:05.469Z,74.95
2022-08-05T04:00:33.499Z,74.93
2022-08-05T04:03:05.007Z,74.79
2022-08-05T04:05:36.379Z,74.54
2022-08-05T04:08:14.323Z,75.06
2022-08-05T04:10:45.055Z,74.90
2022-08-05T04:13:13.195Z,74.84
2022-08-05T04:16:02.839Z,75.27
2022-08-05T04:18:32.371Z,74.93
2022-08-05T04:21:13.688Z,75.04
2022-08-05T04:24:06.615Z,75.54
2022-08-05T04:26:36.433Z,74.92
2022-08-05T04:29:07.062Z,75.48
2022-08-05T04:31:38.651Z,75.50
2022-08-05T04:34:24.495Z,75.75
2022-08-05T04:36:55.281Z,76.09
2022-08-05T04:39:23.212Z,75.79
2022-08-05T04:41:52.004Z,75.85
2022-08-05T04:44:21.290Z,76.26
2022-08-05T04:47:08.830Z,76.19
2022-08-05T04:50:02.758Z,76.42
2022-08-05T04:55:17.538Z,76.19
2022-08-05T04:58:12.349Z,76.23
2022-08-05T05:00:41.497Z,76.10
2022-08-05T05:03:10.473Z,76.63
2022-08-05T05:06:40.671Z,76.35
2022-08-05T05:08:30.398Z,76.61
2022-08-05T05:10:58.245Z,76.55
2022-08-05T05:13:26.912Z,75.84
2022-08-05T05:16:01.869Z,76.68
2022-08-05T05:18:33.256Z,76.15
2022-08-05T05:21:04.017Z,76.48
2022-08-05T05:23:39.327Z,76.24
2022-08-05T05:26:19.779Z,76.27
2022-08-05T05:28:57.005Z,76.21
2022-08-05T05:31:24.756Z,76.13
2022-08-05T05:34:01.846Z,76.60
2022-08-05T05:36:31.432Z,76.19
2022-08-05T05:38:59.338Z,74.54
2022-08-05T05:41:40.732Z,73.45
2022-08-05T05:44:35.559Z,73.40
2022-08-05T05:46:58.097Z,73.28
2022-08-05T05:49:26.467Z,72.50
2022-08-05T05:51:55.349Z,71.51
2022-08-05T05:54:22.991Z,71.24
2022-08-05T05:57:13.521Z,71.37
2022-08-05T05:59:41.562Z,71.10
2022-08-05T06:02:11.482Z,71.98
2022-08-05T06:04:39.050Z,71.45
2022-08-05T06:07:06.626Z,70.23
2022-08-05T06:09:49.206Z,68.62
2022-08-05T06:12:21.922Z,66.61
2022-08-05T06:14:54.934Z,64.82
2022-08-05T06:17:31.072Z,63.00
2022-08-05T06:19:59.754Z,61.42
2022-08-05T06:22:29.810Z,59.42
2022-08-05T06:24:57.886Z,57.81
2022-08-05T06:28:12.247Z,56.15
2022-08-05T06:30:17.983Z,54.61
2022-08-05T06:32:50.682Z,52.95
2022-08-05T06:36:03.447Z,51.66
2022-08-05T06:38:11.413Z,51.19
2022-08-05T06:40:44.469Z,50.05
2022-08-05T06:43:57.506Z,49.17
2022-08-05T06:46:03.635Z,48.85
2022-08-05T06:48:52.770Z,47.83
2022-08-05T06:51:30.037Z,47.61
2022-08-05T06:54:01.914Z,46.76
2022-08-05T06:56:34.270Z,46.39
2022-08-05T06:59:09.774Z,45.45
2022-08-05T07:01:40.691Z,44.94
2022-08-05T07:04:10.974Z,44.25
2022-08-05T07:06:42.224Z,43.35
2022-08-05T07:09:09.805Z,43.30
2022-08-05T07:11:39.805Z,43.43
2022-08-05T07:14:29.796Z,43.74
2022-08-05T07:18:00.996Z,44.23
2022-08-05T07:20:31.421Z,44.51
2022-08-05T07:22:39.220Z,43.43
2022-08-05T07:25:21.850Z,42.87
2022-08-05T07:27:57.949Z,41.91
2022-08-05T07:30:39.085Z,41.00
2022-08-05T07:33:16.113Z,41.03
2022-08-05T07:36:01.875Z,41.39
2022-08-05T07:38:43.574Z,42.39
2022-08-05T07:42:07.671Z,42.57
2022-08-05T07:44:14.297Z,43.55
2022-08-05T07:46:49.350Z,44.27
2022-08-05T07:49:18.825Z,44.90
2022-08-05T07:51:52.954Z,44.97
2022-08-05T07:54:31.413Z,44.51
2022-08-05T07:57:22.667Z,43.69
2022-08-05T07:59:50.754Z,42.76
2022-08-05T08:02:26.477Z,41.76
2022-08-05T08:04:55.856Z,41.35
2022-08-05T08:07:23.467Z,40.31
2022-08-05T08:09:55.138Z,40.09
2022-08-05T08:12:37.419Z,39.78
2022-08-05T08:15:15.669Z,38.41
2022-08-05T08:21:03.441Z,36.81
2022-08-05T08:24:02.398Z,36.31
2022-08-05T08:26:36.176Z,36.11
2022-08-05T08:29:45.284Z,37.91
2022-08-05T08:32:05.686Z,38.41
2022-08-05T08:34:38.491Z,38.96
2022-08-05T08:37:08.715Z,38.17
2022-08-05T08:39:37.815Z,37.10
2022-08-05T08:42:10.761Z,36.10
2022-08-05T08:45:19.017Z,34.47
2022-08-05T08:48:12.330Z,33.54
2022-08-05T08:51:03.751Z,32.25
2022-08-05T08:53:44.370Z,30.79
2022-08-05T08:56:13.117Z,30.20
2022-08-05T08:58:47.978Z,30.11
2022-08-05T09:01:18.453Z,29.96
2022-08-05T09:03:54.622Z,29.55
2022-08-05T09:06:28.043Z,28.79
2022-08-05T09:09:01.132Z,28.00
2022-08-05T09:11:51.727Z,27.11
2022-08-05T09:14:59.037Z,26.66
2022-08-05T09:17:09.643Z,26.49
2022-08-05T09:20:02.558Z,26.36
2022-08-05T09:23:21.758Z,25.18
2022-08-05T09:26:03.069Z,25.23
2022-08-05T09:28:34.560Z,24.77
2022-08-05T09:31:18.321Z,24.79
2022-08-05T09:33:56.606Z,24.88
2022-08-05T09:36:27.784Z,25.08
2022-08-05T09:39:18.006Z,25.04
2022-08-05T09:42:03.652Z,25.34
2022-08-05T09:44:35.801Z,25.08
2022-08-05T09:47:12.754Z,24.37
2022-08-05T09:50:00.541Z,23.96
2022-08-05T09:52:36.419Z,23.37
2022-08-05T09:55:58.100Z,23.18
2022-08-05T09:58:10.042Z,23.74
2022-08-05T10:00:39.052Z,24.26
2022-08-05T10:03:11.735Z,23.21
2022-08-05T10:05:41.975Z,23.51
2022-08-05T10:08:35.462Z,23.15
2022-08-05T10:10:58.906Z,23.25
2022-08-05T10:13:47.516Z,23.10
2022-08-05T10:16:37.954Z,23.31
2022-08-05T10:19:17.063Z,23.89
2022-08-05T10:21:51.778Z,25.17
2022-08-05T10:24:21.346Z,25.73
2022-08-05T10:27:00.491Z,26.35
2022-08-05T10:30:06.593Z,25.83
2022-08-05T10:32:54.721Z,25.29
2022-08-05T10:35:08.567Z,25.15
2022-08-05T10:37:44.541Z,24.98
2022-08-05T10:40:39.015Z,26.27
2022-08-05T10:43:31.054Z,28.39
2022-08-05T10:46:07.185Z,29.29
2022-08-05T10:48:57.848Z,29.46
2022-08-05T10:51:53.050Z,29.48
2022-08-05T10:54:56.335Z,30.72
2022-08-05T10:57:31.724Z,31.26
2022-08-05T11:00:20.712Z,32.47
2022-08-05T11:02:59.260Z,32.93
2022-08-05T11:06:05.140Z,33.92
2022-08-05T11:08:37.211Z,34.10
2022-08-05T11:11:33.010Z,34.14
2022-08-05T11:14:12.806Z,32.76
2022-08-05T11:16:56.743Z,31.34
2022-08-05T11:20:16.840Z,29.78
2022-08-05T11:22:50.090Z,29.57
2022-08-05T11:26:05.553Z,30.40
2022-08-05T11:28:24.999Z,30.22
2022-08-05T11:30:58.287Z,29.52
2022-08-05T11:33:44.037Z,28.82
2022-08-05T11:36:34.678Z,28.70
2022-08-05T11:39:09.595Z,26.71
2022-08-05T11:42:00.982Z,25.73
2022-08-05T11:44:53.244Z,25.27
2022-08-05T11:47:48.593Z,24.69
2022-08-05T11:50:14.278Z,24.16
2022-08-05T11:52:43.900Z,23.95
2022-08-05T11:55:13.674Z,22.92
2022-08-05T11:58:10.521Z,23.07
2022-08-05T12:00:37.794Z,23.67
2022-08-05T12:03:29.030Z,24.09
2022-08-05T12:06:05.838Z,24.05
2022-08-05T12:08:49.816Z,23.38
2022-08-05T12:11:40.244Z,23.25
2022-08-05T12:14:10.342Z,22.60
2022-08-05T12:16:40.623Z,22.46
2022-08-05T12:20:26.436Z,21.75
2022-08-05T12:22:06.200Z,22.60
2022-08-05T12:24:41.117Z,23.54
2022-08-05T12:27:32.509Z,23.78
2022-08-05T12:30:15.493Z,23.26
2022-08-05T12:32:46.022Z,22.74
2022-08-05T12:35:21.731Z,22.05
2022-08-05T12:37:50.012Z,22.67
2022-08-05T12:40:26.923Z,22.23
2022-08-05T12:42:57.258Z,21.64
2022-08-05T12:45:36.854Z,21.57
2022-08-05T12:48:27.651Z,21.57
2022-08-05T12:52:09.883Z,21.22
2022-08-05T12:54:00.874Z,21.50
2022-08-05T12:56:34.881Z,22.62
2022-08-05T12:59:20.756Z,22.37
2022-08-05T13:02:07.439Z,22.93
2022-08-05T13:04:41.756Z,22.56
2022-08-05T13:07:47.813Z,22.64
2022-08-05T13:10:19.915Z,23.69
2022-08-05T13:12:51.221Z,23.30
2022-08-05T13:15:41.183Z,23.35
2022-08-05T13:18:10.098Z,23.59
2022-08-05T13:20:40.521Z,23.67
2022-08-05T13:23:08.666Z,24.38
2022-08-05T13:25:52.344Z,24.41
2022-08-05T13:28:23.958Z,25.51
2022-08-05T13:30:53.362Z,25.46
2022-08-05T13:34:22.684Z,26.76
2022-08-05T13:36:10.431Z,26.70
2022-08-05T13:38:42.325Z,26.15
2022-08-05T13:41:11.762Z,25.13
2022-08-05T13:43:43.962Z,25.11
2022-08-05T13:46:43.697Z,24.58
2022-08-05T13:49:13.760Z,24.63
2022-08-05T13:51:46.362Z,25.40
2022-08-05T13:54:16.952Z,24.77
2022-08-05T13:56:51.158Z,24.17
2022-08-05T13:59:24.468Z,24.10
2022-08-05T14:01:57.608Z,24.77
2022-08-05T14:04:52.433Z,25.58
2022-08-05T14:07:26.439Z,25.72
2022-08-05T14:10:18.981Z,25.97
2022-08-05T14:12:57.152Z,26.30
2022-08-05T14:16:05.835Z,27.41
2022-08-05T14:18:17.290Z,28.70
2022-08-05T14:20:48.239Z,29.51
2022-08-05T14:23:24.902Z,30.62
2022-08-05T14:25:57.938Z,31.15
2022-08-05T14:28:30.602Z,31.36
2022-08-05T14:30:59.624Z,30.68
2022-08-05T14:33:32.469Z,30.59
2022-08-05T14:36:16.268Z,30.57
2022-08-05T14:38:51.056Z,30.66
2022-08-05T14:41:19.191Z,30.98
2022-08-05T14:43:57.500Z,31.01
2022-08-05T14:46:31.530Z,32.01
2022-08-05T14:49:07.245Z,33.08
2022-08-05T14:51:42.493Z,33.83
2022-08-05T14:54:28.001Z,33.87
2022-08-05T14:56:58.288Z,34.77
2022-08-05T14:59:29.578Z,35.31
2022-08-05T15:02:15.871Z,35.05
2022-08-05T15:04:44.808Z,34.81
2022-08-05T15:08:05.719Z,35.09
2022-08-05T15:10:01.581Z,34.53
2022-08-05T15:12:41.071Z,34.55
2022-08-05T15:15:55.386Z,34.98
2022-08-05T15:18:06.607Z,35.18
2022-08-05T15:20:34.235Z,35.52
2022-08-05T15:23:11.267Z,35.90
2022-08-05T15:25:52.088Z,36.15
2022-08-05T15:28:27.033Z,37.57
2022-08-05T15:30:57.831Z,40.75
2022-08-05T15:34:05.247Z,43.67
2022-08-05T15:36:17.652Z,44.93
2022-08-05T15:40:41.617Z,44.69
2022-08-05T15:41:57.334Z,44.07
2022-08-05T15:44:28.100Z,43.85
2022-08-05T15:47:01.133Z,43.04
2022-08-05T15:49:48.105Z,42.85
2022-08-05T15:52:29.497Z,42.51
2022-08-05T15:55:08.312Z,42.17
2022-08-05T15:57:38.284Z,41.96
2022-08-05T16:00:10.051Z,41.93
2022-08-05T16:02:39.137Z,41.44
2022-08-05T16:05:11.235Z,41.51
2022-08-05T16:07:39.008Z,41.38
2022-08-05T16:10:14.449Z,41.61
2022-08-05T16:12:42.319Z,41.88
2022-08-05T16:15:10.596Z,41.98
2022-08-05T16:17:57.538Z,41.84
2022-08-05T16:20:26.279Z,41.00
2022-08-05T16:22:55.759Z,40.87
2022-08-05T16:25:32.204Z,40.66
2022-08-05T16:28:05.553Z,41.16
2022-08-05T16:30:35.992Z,41.33
2022-08-05T16:33:04.245Z,40.28
2022-08-05T16:35:32.405Z,40.02
2022-08-05T16:38:24.654Z,40.75
2022-08-05T16:40:55.028Z,40.60
2022-08-05T16:43:25.080Z,40.31
2022-08-05T16:46:07.177Z,40.23
2022-08-05T16:48:40.646Z,39.80
2022-08-05T16:51:09.753Z,40.23
2022-08-05T16:54:04.335Z,40.39
2022-08-05T16:56:29.685Z,40.19
2022-08-05T16:58:58.015Z,40.24
2022-08-05T17:01:27.990Z,40.69
2022-08-05T17:04:15.078Z,41.06
2022-08-05T17:06:42.805Z,41.31
2022-08-05T17:09:21.255Z,41.73
2022-08-05T17:14:56.338Z,42.15
2022-08-05T17:17:42.661Z,42.17
2022-08-05T17:20:39.282Z,41.99
2022-08-05T17:23:08.775Z,42.06
2022-08-05T17:25:56.650Z,42.10
2022-08-05T17:28:30.415Z,42.14
2022-08-05T17:30:58.118Z,42.14
2022-08-05T17:33:26.239Z,42.25
2022-08-05T17:36:32.799Z,42.49
2022-08-05T17:39:24.299Z,42.70
2022-08-05T17:42:28.612Z,42.83
2022-08-05T17:45:17.857Z,43.21
2022-08-05T17:47:54.561Z,43.59
2022-08-05T17:50:28.558Z,43.88
2022-08-05T17:52:59.755Z,44.04
2022-08-05T17:55:37.709Z,44.26
2022-08-05T17:58:13.235Z,44.37
2022-08-05T18:00:47.877Z,43.69
2022-08-05T18:06:10.964Z,43.27
2022-08-05T18:08:44.555Z,43.52
2022-08-05T18:11:23.934Z,43.06
2022-08-05T18:13:57.652Z,43.30
2022-08-05T18:16:27.525Z,43.31
2022-08-05T18:18:55.169Z,43.23
2022-08-05T18:21:26.022Z,43.75
2022-08-05T18:23:55.423Z,43.82
2022-08-05T18:26:29.131Z,44.05
2022-08-05T18:28:57.797Z,44.26
2022-08-05T18:31:25.429Z,44.53
2022-08-05T18:34:01.482Z,44.63
2022-08-05T18:36:29.797Z,44.54
2022-08-05T18:38:57.655Z,44.55
2022-08-05T18:41:56.635Z,44.42
2022-08-05T18:44:13.477Z,44.41
2022-08-05T18:47:01.534Z,44.56
2022-08-05T18:49:57.836Z,44.44
2022-08-05T18:52:50.931Z,44.75
2022-08-05T18:55:21.576Z,44.90
2022-08-05T18:57:53.285Z,45.20
2022-08-05T19:00:29.044Z,45.23
2022-08-05T19:03:03.230Z,45.73
2022-08-05T19:06:11.284Z,46.20
2022-08-05T19:08:30.160Z,46.68
2022-08-05T19:10:59.735Z,47.15
2022-08-05T19:13:35.599Z,47.49
2022-08-05T19:16:05.142Z,47.68
2022-08-05T19:18:53.515Z,47.83
2022-08-05T19:21:27.586Z,48.14
2022-08-05T19:24:05.239Z,48.49
2022-08-05T19:26:54.323Z,48.21
2022-08-05T19:29:35.724Z,48.79
2022-08-05T19:32:11.522Z,48.71
2022-08-05T19:34:39.662Z,48.92
2022-08-05T19:37:07.364Z,48.80
2022-08-05T19:39:50.538Z,49.24
2022-08-05T19:42:35.340Z,49.35
2022-08-05T19:45:06.092Z,49.73
2022-08-05T19:47:37.671Z,49.90
2022-08-05T19:50:07.781Z,50.48
2022-08-05T19:52:38.343Z,50.70
2022-08-05T19:55:07.261Z,50.72
2022-08-05T19:58:14.659Z,50.84
2022-08-05T20:00:52.904Z,51.17
2022-08-05T20:03:20.633Z,51.04
2022-08-05T20:05:51.294Z,51.81
2022-08-05T20:08:20.458Z,51.93
2022-08-05T20:10:53.124Z,52.02
2022-08-05T20:13:30.041Z,51.84
2022-08-05T20:16:09.985Z,52.33
2022-08-05T20:18:38.630Z,52.94
2022-08-05T21:24:19.802Z,57.79
2022-08-05T21:26:53.293Z,57.60
2022-08-05T21:29:31.999Z,57.63
2022-08-05T21:32:02.316Z,58.23
2022-08-05T21:34:31.662Z,58.42
2022-08-05T21:37:00.984Z,58.34
2022-08-05T21:39:29.864Z,58.50
2022-08-05T21:42:01.705Z,58.70
2022-08-05T21:44:33.031Z,59.05
2022-08-05T21:47:01.313Z,59.58
2022-08-05T21:49:48.485Z,59.74
2022-08-05T21:52:26.727Z,59.37
2022-08-05T21:54:57.555Z,59.86
2022-08-05T21:57:42.647Z,60.18
2022-08-05T22:00:11.879Z,60.56
2022-08-05T22:02:43.430Z,61.42
2022-08-05T22:05:12.450Z,61.30
2022-08-05T22:07:59.133Z,61.46
2022-08-05T22:10:29.048Z,61.97
2022-08-05T22:12:59.037Z,61.92
2022-08-05T22:16:00.529Z,61.97
2022-08-05T22:18:25.938Z,61.50
2022-08-05T22:20:53.918Z,61.94
2022-08-05T22:24:01.293Z,61.68
2022-08-05T22:26:50.510Z,61.35
2022-08-05T22:29:26.725Z,61.83
2022-08-05T22:31:59.765Z,61.55
2022-08-05T22:34:32.357Z,61.95
2022-08-05T22:37:00.268Z,62.15
2022-08-05T22:39:33.371Z,62.25
2022-08-05T22:42:10.738Z,61.75
2022-08-05T22:44:40.313Z,61.96
2022-08-05T22:47:08.296Z,62.50
2022-08-05T22:50:19.698Z,62.48
2022-08-05T22:52:32.510Z,62.47
2022-08-05T22:55:04.358Z,63.07
2022-08-05T22:57:52.190Z,63.07
2022-08-05T23:00:22.186Z,63.21
2022-08-05T23:02:53.536Z,63.04
2022-08-05T23:05:22.630Z,62.90
2022-08-05T23:07:51.278Z,63.37
2022-08-05T23:10:20.881Z,63.68
2022-08-05T23:12:54.755Z,63.67
2022-08-05T23:15:29.928Z,64.06
2022-08-05T23:18:06.193Z,64.13
2022-08-05T23:20:39.938Z,64.21
2022-08-05T23:23:10.952Z,64.67
2022-08-05T23:25:54.716Z,64.39
2022-08-05T23:28:28.667Z,64.92
2022-08-05T23:31:15.729Z,64.55
2022-08-05T23:34:05.848Z,65.06
2022-08-05T23:36:39.720Z,64.96
2022-08-05T23:39:17.314Z,65.07
2022-08-05T23:41:59.982Z,64.96
2022-08-05T23:44:27.847Z,65.05
2022-08-05T23:47:02.586Z,65.25
2022-08-05T23:49:45.655Z,65.38
2022-08-05T23:52:32.092Z,65.12
2022-08-05T23:55:09.570Z,65.16
2022-08-05T23:57:38.598Z,65.15
